Time;durP1;ratioP1;P1;durP2;ratioP2;P2;SDS_P1;SDS_P2;PMS_P1;PMS_P2;Temp;Humidity;BMP_temperature;BMP_pressure;BME280_temperature;BME280_humidity;BME280_pressure;Samples;Min_cycle;Max_cycle;Signal;HPM_P1;HPM_P2
2022/08/20 00:01:41;;;;;;;1.27;0.98;;;24.60;90.60;;;;;;5055671;28;20031;-79
2022/08/20 00:04:06;;;;;;;2.55;1.58;;;24.60;90.50;;;;;;5055507;28;20029;-79
2022/08/20 00:06:33;;;;;;;2.00;1.70;;;24.60;90.50;;;;;;5055488;28;20021;-79
2022/08/20 00:08:58;;;;;;;1.95;1.10;;;24.60;90.50;;;;;;5055320;28;20021;-79
2022/08/20 00:11:26;;;;;;;2.20;1.38;;;24.60;90.40;;;;;;5055524;28;20033;-79
2022/08/20 00:13:58;;;;;;;1.27;1.05;;;24.60;90.40;;;;;;5055106;28;20461;-79
2022/08/20 00:16:26;;;;;;;4.20;3.80;;;24.60;90.30;;;;;;5055192;28;20106;-79
2022/08/20 00:18:51;;;;;;;9.57;5.78;;;24.60;90.30;;;;;;5055331;28;20048;-79
2022/08/20 00:21:19;;;;;;;3.22;2.25;;;24.60;90.50;;;;;;5055146;28;20021;-79
2022/08/20 00:23:47;;;;;;;1.35;1.25;;;24.60;90.50;;;;;;5054998;28;20052;-79
2022/08/20 00:26:14;;;;;;;4.13;1.40;;;24.60;90.40;;;;;;5055236;28;20111;-79
2022/08/20 00:28:40;;;;;;;0.90;0.80;;;24.60;90.40;;;;;;5055188;28;20094;-79
2022/08/20 00:31:08;;;;;;;3.17;2.72;;;24.60;90.30;;;;;;5054846;28;20021;-78
2022/08/20 00:33:35;;;;;;;4.35;2.15;;;24.60;90.40;;;;;;5055166;28;20040;-79
2022/08/20 00:36:05;;;;;;;2.45;2.25;;;24.60;90.40;;;;;;5054548;28;20396;-79
2022/08/20 00:38:32;;;;;;;4.38;3.45;;;24.60;90.50;;;;;;5055034;28;20431;-79
2022/08/20 00:40:58;;;;;;;3.17;2.05;;;24.50;90.50;;;;;;5053407;28;20361;-79
2022/08/20 00:43:34;;;;;;;1.73;1.45;;;24.50;90.50;;;;;;5054533;28;20036;-79
2022/08/20 00:46:11;;;;;;;2.08;1.88;;;24.50;90.40;;;;;;5054675;28;20025;-79
2022/08/20 00:48:40;;;;;;;1.90;1.67;;;24.50;90.40;;;;;;5054821;28;20022;-79
2022/08/20 00:51:16;;;;;;;2.65;1.77;;;24.50;90.40;;;;;;5054826;28;20032;-79
2022/08/20 00:53:42;;;;;;;9.57;7.30;;;24.50;90.30;;;;;;5054535;28;20028;-79
2022/08/20 00:56:10;;;;;;;2.97;2.65;;;24.60;90.60;;;;;;5054409;28;20028;-79
2022/08/20 00:58:37;;;;;;;2.65;2.05;;;24.50;90.70;;;;;;5054288;28;20041;-79
2022/08/20 01:01:04;;;;;;;4.70;3.78;;;24.40;90.60;;;;;;5054299;28;20029;-79
2022/08/20 01:03:30;;;;;;;11.60;6.80;;;24.40;90.60;;;;;;5054292;28;20036;-79
2022/08/20 01:05:56;;;;;;;11.68;7.78;;;24.40;91.00;;;;;;5054517;28;20431;-78
2022/08/20 01:08:23;;;;;;;4.88;3.00;;;24.40;91.20;;;;;;5054392;28;20132;-79
2022/08/20 01:10:52;;;;;;;5.47;3.67;;;24.30;91.10;;;;;;5054234;28;20092;-79
2022/08/20 01:13:22;;;;;;;2.00;1.80;;;24.20;91.10;;;;;;5054410;28;20056;-79
2022/08/20 01:15:52;;;;;;;3.13;2.83;;;24.20;91.10;;;;;;5054211;28;20021;-78
2022/08/20 01:18:23;;;;;;;2.67;2.47;;;24.20;91.00;;;;;;5054132;28;20072;-78
2022/08/20 01:20:54;;;;;;;2.50;2.30;;;24.20;91.00;;;;;;5054360;28;20021;-78
2022/08/20 01:23:38;;;;;;;3.30;3.00;;;24.30;91.10;;;;;;5053737;28;20036;-78
2022/08/20 01:26:09;;;;;;;3.08;2.47;;;24.20;91.00;;;;;;5053852;28;20040;-79
2022/08/20 01:28:49;;;;;;;2.17;1.55;;;24.20;91.10;;;;;;5053824;28;20424;-78
2022/08/20 01:31:24;;;;;;;2.28;1.90;;;24.30;91.10;;;;;;5053743;28;20055;-79
2022/08/20 01:33:51;;;;;;;1.45;1.05;;;24.30;91.00;;;;;;5053962;28;20060;-78
2022/08/20 01:36:21;;;;;;;3.72;3.13;;;24.30;91.00;;;;;;5053956;28;20024;-79
2022/08/20 01:38:47;;;;;;;3.50;3.13;;;24.20;91.20;;;;;;5053821;28;20040;-79
2022/08/20 01:41:52;;;;;;;2.08;1.50;;;24.20;91.30;;;;;;5053314;28;20131;-79
2022/08/20 01:44:19;;;;;;;1.90;1.00;;;24.20;91.20;;;;;;5053463;28;20097;-79
2022/08/20 01:46:47;;;;;;;1.30;0.88;;;24.20;91.10;;;;;;5053632;28;20384;-79
2022/08/20 01:49:18;;;;;;;2.05;1.08;;;24.20;90.90;;;;;;5053469;28;20025;-79
2022/08/20 01:51:45;;;;;;;0.60;0.50;;;24.30;91.10;;;;;;5053388;28;20029;-79
2022/08/20 01:54:11;;;;;;;0.70;0.60;;;24.30;90.80;;;;;;5053645;28;20032;-78
2022/08/20 01:56:59;;;;;;;1.55;1.45;;;24.40;90.70;;;;;;5053149;28;20025;-79
2022/08/20 01:59:24;;;;;;;2.65;1.83;;;24.40;90.70;;;;;;5053203;28;20037;-78
2022/08/20 02:01:51;;;;;;;1.88;1.58;;;24.30;91.10;;;;;;5053587;28;20032;-78
2022/08/20 02:04:17;;;;;;;2.38;2.17;;;24.30;90.70;;;;;;5053117;28;20017;-79
2022/08/20 02:06:55;;;;;;;2.38;1.95;;;24.30;90.70;;;;;;5053302;28;20078;-79
2022/08/20 02:09:21;;;;;;;2.33;1.83;;;24.30;90.60;;;;;;5053442;28;20381;-79
2022/08/20 02:11:47;;;;;;;3.08;1.75;;;24.40;90.60;;;;;;5053230;28;20021;-79
2022/08/20 02:14:14;;;;;;;1.10;0.95;;;24.40;90.70;;;;;;5053427;28;20036;-79
2022/08/20 02:16:42;;;;;;;2.65;1.63;;;24.40;90.70;;;;;;5052866;28;20102;-79
2022/08/20 02:19:13;;;;;;;1.40;1.20;;;24.30;90.60;;;;;;5052734;28;20037;-78
2022/08/20 02:21:44;;;;;;;2.22;1.30;;;24.40;90.60;;;;;;5053319;28;20066;-79
2022/08/20 02:24:10;;;;;;;2.25;1.15;;;24.40;90.50;;;;;;5052995;28;20045;-79
2022/08/20 02:26:37;;;;;;;1.15;0.73;;;24.40;90.50;;;;;;5052975;28;20457;-78
2022/08/20 02:29:06;;;;;;;1.23;0.88;;;24.40;90.50;;;;;;5053274;28;20057;-79
2022/08/20 02:31:32;;;;;;;1.17;0.70;;;24.40;90.50;;;;;;5053039;28;20078;-79
2022/08/20 02:33:58;;;;;;;2.80;2.50;;;24.40;90.50;;;;;;5052943;28;20025;-78
2022/08/20 02:36:26;;;;;;;1.75;1.48;;;24.30;90.70;;;;;;5052918;28;20120;-79
2022/08/20 02:38:51;;;;;;;1.17;1.08;;;24.20;90.80;;;;;;5053251;28;20051;-79
2022/08/20 02:41:20;;;;;;;2.08;1.70;;;24.30;90.70;;;;;;5052661;28;20021;-79
2022/08/20 02:43:45;;;;;;;2.15;1.50;;;24.30;90.80;;;;;;5052971;28;20021;-79
2022/08/20 02:46:11;;;;;;;4.43;2.38;;;24.20;91.10;;;;;;5053017;28;20095;-79
2022/08/20 02:48:39;;;;;;;4.15;2.75;;;24.20;90.90;;;;;;5053185;28;20112;-79
2022/08/20 02:51:05;;;;;;;2.35;1.85;;;24.10;91.10;;;;;;5052667;28;20108;-78
2022/08/20 02:53:34;;;;;;;2.58;2.35;;;24.10;91.10;;;;;;5052876;28;20431;-79
2022/08/20 02:56:01;;;;;;;2.45;1.20;;;24.00;91.20;;;;;;5052920;28;20048;-78
2022/08/20 02:58:27;;;;;;;1.23;0.85;;;24.00;91.10;;;;;;5052596;28;20115;-78
2022/08/20 03:00:52;;;;;;;2.05;1.50;;;24.10;91.00;;;;;;5052995;28;20500;-78
2022/08/20 03:03:21;;;;;;;1.75;0.90;;;24.10;91.00;;;;;;5054019;28;20376;-78
2022/08/20 03:05:48;;;;;;;0.95;0.70;;;24.10;90.90;;;;;;5056489;28;20053;-78
2022/08/20 03:08:14;;;;;;;0.95;0.70;;;24.10;90.80;;;;;;5056613;28;20385;-78
2022/08/20 03:10:42;;;;;;;3.97;2.35;;;24.10;90.80;;;;;;5056737;28;20029;-78
2022/08/20 03:13:11;;;;;;;3.20;2.20;;;24.20;90.80;;;;;;5056605;28;20025;-78
2022/08/20 03:15:39;;;;;;;3.10;2.40;;;24.10;90.90;;;;;;5056426;28;20403;-78
2022/08/20 03:18:04;;;;;;;2.10;1.10;;;23.90;91.20;;;;;;5056476;28;20125;-78
2022/08/20 03:20:30;;;;;;;2.17;1.75;;;23.80;91.30;;;;;;5056244;28;20108;-78
2022/08/20 03:22:56;;;;;;;1.85;0.85;;;23.80;91.40;;;;;;5056264;28;20024;-78
2022/08/20 03:25:22;;;;;;;1.75;1.30;;;23.80;91.30;;;;;;5055676;28;20132;-78
2022/08/20 03:27:48;;;;;;;1.85;1.15;;;23.90;91.50;;;;;;5056354;28;20035;-79
2022/08/20 03:30:15;;;;;;;2.40;1.67;;;23.90;91.10;;;;;;5056288;28;20036;-78
2022/08/20 03:32:42;;;;;;;3.30;2.00;;;23.90;91.10;;;;;;5056303;28;20045;-78
2022/08/20 03:35:11;;;;;;;2.33;1.80;;;23.90;91.40;;;;;;5056263;28;20431;-79
2022/08/20 03:37:37;;;;;;;3.58;1.75;;;23.70;91.70;;;;;;5055576;28;20385;-79
2022/08/20 03:40:06;;;;;;;1.35;0.70;;;23.70;91.70;;;;;;5055814;28;20035;-79
2022/08/20 03:42:32;;;;;;;0.90;0.80;;;23.70;91.60;;;;;;5056154;28;20032;-79
2022/08/20 03:44:57;;;;;;;1.77;0.63;;;23.70;91.50;;;;;;5056087;28;20108;-78
2022/08/20 03:47:24;;;;;;;2.10;1.48;;;23.80;91.40;;;;;;5055653;28;20071;-78
2022/08/20 03:49:50;;;;;;;1.67;1.00;;;23.90;91.30;;;;;;5055751;28;20059;-79
2022/08/20 03:52:16;;;;;;;1.90;0.95;;;23.90;91.20;;;;;;5055815;28;20017;-78
2022/08/20 03:54:44;;;;;;;1.77;1.10;;;24.00;91.10;;;;;;5055821;28;20431;-78
2022/08/20 03:57:13;;;;;;;3.92;2.00;;;24.10;91.00;;;;;;5055470;28;20029;-78
2022/08/20 03:59:40;;;;;;;3.15;1.95;;;24.00;91.20;;;;;;5055418;28;20037;-79
2022/08/20 04:02:06;;;;;;;2.60;1.85;;;23.90;91.10;;;;;;5055831;28;20024;-78
2022/08/20 04:04:32;;;;;;;1.65;1.40;;;23.90;91.30;;;;;;5055326;28;20031;-78
2022/08/20 04:06:57;;;;;;;1.13;0.80;;;23.80;91.40;;;;;;5055858;28;20021;-79
2022/08/20 04:09:23;;;;;;;2.08;1.23;;;23.90;91.30;;;;;;5055365;28;20021;-78
2022/08/20 04:11:48;;;;;;;3.60;1.85;;;23.80;91.30;;;;;;5055420;28;20032;-78
2022/08/20 04:14:14;;;;;;;4.38;2.20;;;23.80;91.50;;;;;;5055304;28;20526;-79
2022/08/20 04:16:40;;;;;;;1.65;1.38;;;23.60;91.70;;;;;;5055464;28;20031;-78
2022/08/20 04:19:06;;;;;;;1.88;1.42;;;23.60;91.90;;;;;;5055021;28;20064;-78
2022/08/20 04:21:34;;;;;;;1.58;0.88;;;23.60;91.90;;;;;;5055194;28;20047;-79
2022/08/20 04:24:02;;;;;;;6.22;3.58;;;23.60;91.90;;;;;;5054798;28;20451;-79
2022/08/20 04:26:27;;;;;;;3.10;1.50;;;23.50;92.30;;;;;;5054996;28;20028;-79
2022/08/20 04:28:54;;;;;;;1.58;1.27;;;23.40;92.50;;;;;;5055353;28;20048;-79
2022/08/20 04:31:20;;;;;;;1.92;0.70;;;23.40;92.50;;;;;;5054940;28;20025;-78
2022/08/20 04:33:45;;;;;;;1.50;0.88;;;23.40;92.30;;;;;;5054612;28;20499;-78
2022/08/20 04:36:12;;;;;;;2.72;1.10;;;23.50;92.10;;;;;;5054820;28;20040;-78
2022/08/20 04:38:38;;;;;;;1.65;1.10;;;23.50;91.90;;;;;;5054931;28;20040;-79
2022/08/20 04:41:04;;;;;;;3.00;1.17;;;23.60;92.10;;;;;;5054975;28;20028;-78
2022/08/20 04:43:33;;;;;;;4.05;2.80;;;23.70;91.80;;;;;;5054449;28;20028;-78
2022/08/20 04:46:04;;;;;;;7.30;3.97;;;23.70;91.80;;;;;;5054699;28;20017;-78
2022/08/20 04:48:31;;;;;;;3.63;2.53;;;23.70;91.90;;;;;;5054928;28;20078;-78
2022/08/20 04:50:57;;;;;;;4.25;2.83;;;23.60;92.00;;;;;;5054315;28;20025;-78
2022/08/20 04:53:26;;;;;;;4.45;2.50;;;23.60;91.90;;;;;;5054611;28;20143;-78
2022/08/20 04:55:54;;;;;;;4.68;2.40;;;23.50;92.10;;;;;;5054384;28;20491;-78
2022/08/20 04:58:26;;;;;;;5.60;2.83;;;23.40;92.30;;;;;;5054591;28;20036;-78
2022/08/20 05:00:54;;;;;;;4.90;1.87;;;23.20;92.20;;;;;;5054504;28;20028;-78
2022/08/20 05:03:22;;;;;;;2.38;1.08;;;23.00;92.10;;;;;;5054295;28;20283;-78
2022/08/20 05:05:49;;;;;;;2.67;0.43;;;22.90;92.40;;;;;;5054116;28;20550;-78
2022/08/20 05:08:17;;;;;;;2.92;0.75;;;23.00;92.40;;;;;;5054456;28;20040;-78
2022/08/20 05:10:43;;;;;;;1.05;0.50;;;23.00;92.30;;;;;;5054099;28;20514;-78
2022/08/20 05:13:09;;;;;;;1.50;0.60;;;23.20;92.20;;;;;;5054076;28;20384;-78
2022/08/20 05:15:37;;;;;;;1.95;0.73;;;23.30;92.10;;;;;;5054148;28;20025;-78
2022/08/20 05:18:04;;;;;;;3.70;0.98;;;23.30;92.00;;;;;;5053818;28;20108;-78
2022/08/20 05:20:32;;;;;;;1.45;0.60;;;23.30;91.90;;;;;;5054084;28;20025;-78
2022/08/20 05:23:00;;;;;;;0.77;0.30;;;23.30;91.90;;;;;;5053881;28;20021;-78
2022/08/20 05:25:29;;;;;;;1.45;0.50;;;23.40;91.80;;;;;;5053523;28;20532;-78
2022/08/20 05:28:02;;;;;;;1.33;0.40;;;23.40;91.70;;;;;;5054002;28;20025;-78
2022/08/20 05:30:32;;;;;;;;;;;23.50;91.60;;;;;;5054413;28;20024;-78
2022/08/20 05:33:03;;;;;;;2.00;0.40;;;23.50;91.60;;;;;;5053456;28;19999;-78
2022/08/20 05:35:33;;;;;;;2.37;0.80;;;23.60;91.50;;;;;;5053786;28;20104;-78
2022/08/20 05:37:59;;;;;;;1.38;0.50;;;23.60;91.40;;;;;;5053690;28;20033;-78
2022/08/20 05:40:25;;;;;;;2.38;0.75;;;23.60;91.40;;;;;;5053792;28;20037;-78
2022/08/20 05:42:52;;;;;;;1.33;0.40;;;23.60;91.40;;;;;;5053774;28;20376;-78
2022/08/20 05:45:18;;;;;;;1.33;0.50;;;23.60;91.30;;;;;;5053351;28;20032;-78
2022/08/20 05:47:44;;;;;;;1.15;0.50;;;23.60;91.30;;;;;;5053556;28;20033;-78
2022/08/20 05:50:12;;;;;;;1.05;0.40;;;23.60;91.20;;;;;;5053714;28;20067;-78
2022/08/20 05:52:38;;;;;;;0.85;0.43;;;23.70;91.20;;;;;;5053699;28;20075;-78
2022/08/20 05:55:07;;;;;;;1.15;0.47;;;23.70;91.10;;;;;;5053420;28;20125;-78
2022/08/20 05:57:33;;;;;;;1.42;0.43;;;23.70;91.00;;;;;;5053184;28;20029;-78
2022/08/20 06:00:03;;;;;;;1.70;0.80;;;23.70;91.00;;;;;;5053336;28;20033;-78
2022/08/20 06:05:33;;;;;;;1.38;0.50;;;23.80;90.90;;;;;;5051200;28;20029;-78
2022/08/20 06:07:59;;;;;;;1.50;0.30;;;23.80;90.90;;;;;;5050943;28;20492;-78
2022/08/20 06:10:25;;;;;;;1.27;0.57;;;23.80;90.90;;;;;;5052108;28;20037;-78
2022/08/20 06:12:52;;;;;;;1.77;0.60;;;23.80;90.80;;;;;;5052945;28;20465;-78
2022/08/20 06:15:18;;;;;;;1.88;0.77;;;23.80;90.80;;;;;;5053420;28;20055;-78
2022/08/20 06:17:44;;;;;;;3.00;0.88;;;23.80;91.00;;;;;;5053084;28;20035;-78
2022/08/20 06:20:10;;;;;;;1.42;0.75;;;23.70;91.10;;;;;;5053332;28;20029;-78
2022/08/20 06:22:36;;;;;;;1.63;0.70;;;23.60;91.20;;;;;;5052751;28;20052;-79
2022/08/20 06:25:04;;;;;;;1.33;0.70;;;23.60;91.30;;;;;;5052834;28;20052;-78
2022/08/20 06:27:29;;;;;;;2.67;1.40;;;23.60;91.30;;;;;;5052874;28;20017;-79
2022/08/20 06:29:55;;;;;;;1.73;0.95;;;23.60;91.40;;;;;;5052906;28;20469;-78
2022/08/20 06:32:23;;;;;;;1.40;0.47;;;23.50;91.50;;;;;;5053250;28;20048;-78
2022/08/20 06:34:50;;;;;;;2.70;0.70;;;23.60;91.40;;;;;;5053103;28;20052;-78
2022/08/20 06:37:24;;;;;;;1.50;0.77;;;23.60;91.40;;;;;;5054250;28;20493;-78
2022/08/20 06:39:50;;;;;;;1.50;0.70;;;23.60;91.30;;;;;;5056895;28;20033;-78
2022/08/20 06:42:18;;;;;;;1.17;0.45;;;23.70;91.30;;;;;;5056831;28;20028;-78
2022/08/20 06:44:48;;;;;;;1.38;0.52;;;23.80;91.10;;;;;;5056797;28;20029;-78
2022/08/20 06:47:16;;;;;;;2.58;0.80;;;23.80;91.10;;;;;;5056685;28;20581;-78
2022/08/20 06:49:42;;;;;;;1.60;0.57;;;23.80;91.20;;;;;;5056320;28;20048;-78
2022/08/20 06:52:08;;;;;;;2.40;0.90;;;23.80;91.10;;;;;;5056668;28;20498;-78
2022/08/20 06:54:33;;;;;;;2.30;1.10;;;23.80;91.20;;;;;;5056572;28;20025;-78
2022/08/20 06:57:00;;;;;;;3.20;1.05;;;23.80;91.50;;;;;;5056833;28;20036;-78
2022/08/20 06:59:26;;;;;;;2.92;1.10;;;23.60;91.70;;;;;;5056553;28;20512;-78
2022/08/20 07:01:55;;;;;;;3.85;0.85;;;23.50;91.60;;;;;;5056649;28;20049;-78
2022/08/20 07:04:22;;;;;;;2.60;1.05;;;23.50;91.60;;;;;;5056419;28;20112;-78
2022/08/20 07:06:49;;;;;;;2.10;0.70;;;23.50;91.60;;;;;;5056740;28;20029;-78
2022/08/20 07:09:14;;;;;;;2.90;0.70;;;23.50;91.70;;;;;;5056611;28;20039;-78
2022/08/20 07:11:43;;;;;;;4.35;1.38;;;23.50;91.70;;;;;;5056401;28;20075;-79
2022/08/20 07:14:08;;;;;;;5.78;1.95;;;23.60;91.90;;;;;;5056587;28;20021;-79
2022/08/20 07:16:34;;;;;;;3.47;1.42;;;23.50;92.50;;;;;;5056233;28;20135;-79
2022/08/20 07:19:00;;;;;;;2.60;1.10;;;23.50;92.80;;;;;;5055958;28;20116;-79
2022/08/20 07:21:25;;;;;;;5.47;1.73;;;23.50;92.80;;;;;;5056395;28;20033;-79
2022/08/20 07:23:51;;;;;;;6.15;2.15;;;23.50;93.00;;;;;;5056199;28;20041;-78
2022/08/20 07:26:18;;;;;;;4.05;1.65;;;23.60;92.90;;;;;;5056273;28;20025;-79
2022/08/20 07:28:43;;;;;;;6.43;2.05;;;23.40;92.00;;;;;;5056096;28;20461;-79
2022/08/20 07:33:53;;;;;;;8.52;2.00;;;23.40;91.60;;;;;;5056145;28;20039;-79
2022/08/20 07:36:19;;;;;;;6.47;1.95;;;23.30;91.70;;;;;;5056067;28;20021;-79
2022/08/20 07:38:46;;;;;;;7.38;2.10;;;23.30;91.70;;;;;;5055891;28;20044;-79
2022/08/20 07:41:13;;;;;;;5.82;1.60;;;23.30;90.70;;;;;;5055874;28;20021;-79
2022/08/20 07:43:40;;;;;;;6.45;1.88;;;23.20;91.30;;;;;;5055546;28;20556;-78
2022/08/20 07:46:07;;;;;;;7.53;2.38;;;23.20;91.60;;;;;;5055937;28;20025;-79
2022/08/20 07:48:34;;;;;;;5.13;1.40;;;23.10;91.70;;;;;;5055415;28;20029;-78
2022/08/20 07:51:03;;;;;;;4.90;1.70;;;23.20;91.90;;;;;;5055822;28;20074;-78
2022/08/20 07:53:29;;;;;;;4.50;1.70;;;23.20;92.70;;;;;;5055695;28;20108;-79
2022/08/20 07:55:56;;;;;;;5.13;1.80;;;23.30;92.30;;;;;;5055366;28;20032;-79
2022/08/20 07:58:22;;;;;;;6.78;1.85;;;23.50;92.30;;;;;;5055157;28;20114;-79
2022/08/20 08:00:49;;;;;;;4.55;1.77;;;23.50;92.20;;;;;;5055547;28;20396;-79
2022/08/20 08:03:14;;;;;;;3.15;0.90;;;23.60;92.00;;;;;;5055467;28;20099;-79
2022/08/20 08:05:42;;;;;;;7.60;1.10;;;23.80;91.40;;;;;;5055562;28;20047;-79
2022/08/20 08:08:10;;;;;;;4.43;1.30;;;23.90;90.50;;;;;;5055405;28;20025;-79
2022/08/20 08:10:37;;;;;;;5.32;1.30;;;23.90;89.50;;;;;;5055416;28;20021;-79
2022/08/20 08:13:06;;;;;;;3.20;0.88;;;23.80;89.90;;;;;;5055296;28;20029;-79
2022/08/20 08:15:33;;;;;;;5.28;1.38;;;23.90;89.20;;;;;;5055495;28;20028;-79
2022/08/20 08:18:13;;;;;;;5.22;1.02;;;24.10;89.30;;;;;;5055200;28;20025;-79
2022/08/20 08:20:42;;;;;;;7.35;0.95;;;24.20;88.70;;;;;;5055031;28;20025;-79
2022/08/20 08:23:12;;;;;;;4.28;1.02;;;24.20;87.60;;;;;;5054992;28;20074;-79
2022/08/20 08:25:41;;;;;;;6.57;1.38;;;24.30;86.60;;;;;;5054975;28;20048;-79
2022/08/20 08:28:13;;;;;;;4.97;1.30;;;24.10;86.40;;;;;;5054958;28;20377;-79
2022/08/20 08:30:40;;;;;;;6.47;1.42;;;24.10;87.40;;;;;;5054949;28;20059;-79
2022/08/20 08:33:29;;;;;;;5.15;1.30;;;24.00;86.30;;;;;;5054667;28;20094;-79
2022/08/20 08:35:57;;;;;;;8.07;1.20;;;23.90;87.60;;;;;;5055033;28;20151;-79
2022/08/20 08:38:24;;;;;;;6.32;1.05;;;24.00;86.70;;;;;;5054592;28;20555;-79
2022/08/20 08:40:54;;;;;;;6.40;1.77;;;24.10;86.70;;;;;;5054662;28;20074;-79
2022/08/20 08:43:23;;;;;;;5.97;0.77;;;24.30;83.80;;;;;;5055217;28;20025;-79
2022/08/20 08:46:10;;;;;;;7.93;1.15;;;24.50;83.20;;;;;;5054898;28;20029;-79
2022/08/20 08:48:43;;;;;;;4.82;0.93;;;24.70;82.90;;;;;;5054308;28;20033;-79
2022/08/20 08:51:11;;;;;;;5.82;1.10;;;24.80;81.40;;;;;;5054268;28;20048;-79
2022/08/20 08:53:53;;;;;;;8.15;0.95;;;24.90;80.50;;;;;;5054439;28;20388;-79
2022/08/20 08:56:19;;;;;;;5.25;0.90;;;25.00;80.60;;;;;;5054592;28;20155;-79
2022/08/20 08:58:45;;;;;;;5.45;0.80;;;25.10;79.00;;;;;;5054109;28;20037;-79
2022/08/20 09:01:19;;;;;;;4.28;1.02;;;25.20;77.90;;;;;;5053674;28;20036;-79
2022/08/20 09:03:47;;;;;;;9.98;1.10;;;25.30;78.40;;;;;;5053893;28;20039;-79
2022/08/20 09:06:17;;;;;;;6.63;1.27;;;25.30;77.10;;;;;;5054654;28;20045;-79
2022/08/20 09:08:48;;;;;;;3.90;0.90;;;25.30;76.70;;;;;;5054492;28;20032;-79
2022/08/20 09:11:15;;;;;;;5.53;1.35;;;25.20;76.60;;;;;;5054327;28;20021;-79
2022/08/20 09:13:42;;;;;;;3.90;0.85;;;25.30;77.80;;;;;;5053995;28;20078;-79
2022/08/20 09:16:08;;;;;;;7.15;0.90;;;25.40;77.00;;;;;;5053868;28;20027;-79
2022/08/20 09:18:34;;;;;;;6.20;0.85;;;25.40;75.50;;;;;;5053927;28;20136;-79
2022/08/20 09:20:59;;;;;;;5.10;1.13;;;25.40;72.20;;;;;;5054215;28;20476;-79
2022/08/20 09:23:25;;;;;;;9.65;1.40;;;25.50;73.00;;;;;;5053548;28;20029;-79
2022/08/20 09:25:50;;;;;;;5.07;1.40;;;25.70;73.90;;;;;;5054090;28;20033;-79
2022/08/20 09:28:16;;;;;;;4.95;0.85;;;25.70;73.80;;;;;;5054032;28;20021;-79
2022/08/20 09:30:42;;;;;;;5.80;0.90;;;25.70;74.50;;;;;;5053676;28;20417;-80
2022/08/20 09:33:07;;;;;;;6.65;1.02;;;25.70;74.40;;;;;;5053666;28;20021;-79
2022/08/20 09:35:33;;;;;;;4.82;0.77;;;25.80;73.20;;;;;;5053635;28;20021;-79
2022/08/20 09:37:59;;;;;;;8.02;1.27;;;25.80;69.80;;;;;;5053477;28;20059;-79
2022/08/20 09:40:25;;;;;;;3.50;0.60;;;25.90;69.60;;;;;;5053406;28;20037;-79
2022/08/20 09:42:50;;;;;;;7.47;1.00;;;26.00;70.70;;;;;;5053901;28;20425;-79
2022/08/20 09:45:17;;;;;;;6.22;0.70;;;26.10;70.60;;;;;;5053441;28;20029;-79
2022/08/20 09:47:42;;;;;;;5.57;0.95;;;26.00;70.40;;;;;;5053426;28;20025;-79
2022/08/20 09:50:09;;;;;;;4.78;0.85;;;25.80;69.00;;;;;;5053508;28;20400;-79
2022/08/20 09:52:41;;;;;;;3.95;0.75;;;25.70;68.80;;;;;;5053473;28;20547;-79
2022/08/20 09:55:22;;;;;;;4.82;1.30;;;25.50;70.90;;;;;;5053130;28;20025;-79
2022/08/20 09:57:49;;;;;;;6.32;1.27;;;25.40;70.10;;;;;;5053349;28;20049;-79
2022/08/20 10:00:16;;;;;;;7.78;1.35;;;25.40;70.30;;;;;;5053220;28;20037;-79
2022/08/20 10:02:42;;;;;;;8.20;1.17;;;25.60;69.60;;;;;;5053599;28;20033;-79
2022/08/20 10:05:08;;;;;;;7.78;1.52;;;25.70;70.20;;;;;;5053154;28;20025;-79
2022/08/20 10:07:34;;;;;;;16.15;1.38;;;26.00;69.50;;;;;;5053127;28;20032;-79
2022/08/20 10:10:01;;;;;;;5.28;0.90;;;26.00;65.60;;;;;;5053253;28;20060;-80
2022/08/20 10:12:27;;;;;;;6.57;0.98;;;25.90;64.80;;;;;;5053065;28;20032;-79
2022/08/20 10:14:54;;;;;;;6.10;0.90;;;25.80;64.00;;;;;;5053309;28;20032;-79
2022/08/20 10:17:20;;;;;;;8.85;1.08;;;25.70;65.70;;;;;;5053080;28;20031;-79
2022/08/20 10:19:46;;;;;;;7.28;1.17;;;25.70;65.60;;;;;;5052640;28;20509;-79
2022/08/20 10:22:11;;;;;;;5.30;0.90;;;25.80;64.80;;;;;;5053063;28;20025;-79
2022/08/20 10:24:37;;;;;;;6.78;0.90;;;26.00;65.80;;;;;;5052832;28;20052;-79
2022/08/20 10:27:02;;;;;;;4.03;0.85;;;26.10;65.40;;;;;;5053093;28;20033;-79
2022/08/20 10:29:29;;;;;;;3.90;0.90;;;26.20;65.70;;;;;;5053241;28;20468;-79
2022/08/20 10:31:56;;;;;;;5.95;1.15;;;26.30;66.40;;;;;;5053122;28;20025;-80
2022/08/20 10:34:22;;;;;;;6.28;0.93;;;26.30;65.70;;;;;;5053079;28;20083;-79
2022/08/20 10:36:48;;;;;;;3.50;0.75;;;26.00;63.90;;;;;;5053074;28;20096;-79
2022/08/20 10:39:15;;;;;;;10.15;1.10;;;25.80;64.50;;;;;;5052628;28;20053;-79
2022/08/20 10:41:41;;;;;;;7.10;1.50;;;25.70;65.00;;;;;;5052741;28;20047;-79
2022/08/20 10:44:07;;;;;;;7.88;1.52;;;25.70;64.20;;;;;;5052916;28;20532;-80
2022/08/20 10:46:33;;;;;;;6.43;0.95;;;25.60;64.50;;;;;;5053189;28;20025;-80
2022/08/20 10:48:58;;;;;;;5.18;1.15;;;25.80;64.50;;;;;;5052579;28;20472;-79
2022/08/20 10:51:24;;;;;;;5.38;1.00;;;26.00;64.10;;;;;;5052658;28;20025;-79
2022/08/20 10:53:49;;;;;;;6.85;0.88;;;26.20;64.30;;;;;;5052659;28;20048;-79
2022/08/20 10:56:15;;;;;;;5.78;0.93;;;26.30;62.60;;;;;;5052491;28;20116;-79
2022/08/20 10:58:41;;;;;;;5.88;1.48;;;26.50;61.20;;;;;;5052790;28;20067;-79
2022/08/20 11:01:07;;;;;;;6.18;0.80;;;26.50;58.70;;;;;;5052862;28;20024;-80
2022/08/20 11:03:33;;;;;;;10.23;1.23;;;26.40;58.50;;;;;;5052233;28;20021;-79
2022/08/20 11:05:59;;;;;;;7.40;1.35;;;26.50;58.70;;;;;;5052390;28;20108;-80
2022/08/20 11:08:25;;;;;;;4.07;0.52;;;26.60;59.20;;;;;;5052455;28;20156;-80
2022/08/20 11:10:51;;;;;;;8.68;1.42;;;26.70;59.90;;;;;;5052728;28;20108;-79
2022/08/20 11:13:17;;;;;;;4.80;0.73;;;26.60;56.70;;;;;;5052429;28;20102;-78
2022/08/20 11:15:44;;;;;;;7.47;1.27;;;26.50;56.80;;;;;;5052805;28;20108;-79
2022/08/20 11:18:10;;;;;;;5.68;1.15;;;26.40;56.80;;;;;;5052472;28;20068;-79
2022/08/20 11:20:36;;;;;;;5.20;0.70;;;26.30;57.30;;;;;;5052309;28;20032;-79
2022/08/20 11:23:02;;;;;;;4.95;0.98;;;26.10;58.50;;;;;;5052237;28;20029;-79
2022/08/20 11:25:28;;;;;;;6.25;1.13;;;26.00;59.20;;;;;;5054905;28;20080;-79
2022/08/20 11:27:55;;;;;;;3.83;0.82;;;26.10;60.10;;;;;;5056002;28;20052;-79
2022/08/20 11:30:24;;;;;;;6.22;0.82;;;26.30;60.30;;;;;;5056144;28;20039;-79
2022/08/20 11:32:50;;;;;;;9.10;1.65;;;26.50;59.20;;;;;;5056274;28;20017;-79
2022/08/20 11:35:17;;;;;;;4.97;0.85;;;26.70;57.90;;;;;;5055911;28;20025;-79
2022/08/20 11:37:43;;;;;;;6.80;1.52;;;26.80;58.60;;;;;;5055810;28;20032;-79
2022/08/20 11:40:10;;;;;;;5.10;0.90;;;27.00;59.30;;;;;;5055818;28;20115;-79
2022/08/20 11:42:36;;;;;;;6.00;1.00;;;27.20;56.70;;;;;;5056002;28;20029;-79
2022/08/20 11:45:03;;;;;;;6.72;0.90;;;27.20;56.10;;;;;;5055922;28;20033;-79
2022/08/20 11:47:29;;;;;;;2.67;0.80;;;26.90;55.90;;;;;;5055387;28;20017;-79
2022/08/20 11:50:00;;;;;;;5.88;0.52;;;26.80;57.20;;;;;;5055897;28;20032;-79
2022/08/20 11:52:26;;;;;;;7.20;1.45;;;26.90;56.20;;;;;;5055497;28;20053;-79
2022/08/20 11:54:52;;;;;;;6.07;0.90;;;26.90;55.70;;;;;;5055864;28;20025;-79
2022/08/20 11:57:26;;;;;;;3.80;0.70;;;27.00;54.70;;;;;;5055409;28;20028;-79
2022/08/20 11:59:53;;;;;;;5.22;0.70;;;27.20;54.50;;;;;;5055405;28;20408;-79
2022/08/20 12:02:19;;;;;;;4.03;1.20;;;27.30;54.70;;;;;;5055085;28;20108;-80
2022/08/20 12:04:48;;;;;;;5.60;1.05;;;27.40;53.70;;;;;;5055042;28;20488;-79
2022/08/20 12:07:17;;;;;;;5.22;0.80;;;27.60;54.00;;;;;;5055488;28;20018;-80
2022/08/20 12:09:43;;;;;;;4.22;0.77;;;27.60;54.40;;;;;;5055373;28;20108;-79
2022/08/20 12:12:09;;;;;;;5.88;0.90;;;27.80;53.90;;;;;;5055376;28;20099;-80
2022/08/20 12:14:38;;;;;;;8.90;1.10;;;28.00;52.10;;;;;;5055175;28;20035;-79
2022/08/20 12:17:20;;;;;;;3.45;0.60;;;28.10;52.30;;;;;;5055048;28;20542;-80
2022/08/20 12:19:46;;;;;;;7.65;1.15;;;28.30;52.50;;;;;;5055283;28;20033;-80
2022/08/20 12:22:11;;;;;;;5.38;1.33;;;28.30;50.60;;;;;;5055171;28;20492;-80
2022/08/20 12:24:37;;;;;;;3.58;0.80;;;28.30;50.30;;;;;;5054836;28;20056;-80
2022/08/20 12:27:33;;;;;;;4.63;1.00;;;28.40;50.90;;;;;;5054677;28;20048;-80
2022/08/20 12:30:02;;;;;;;5.53;1.08;;;28.50;49.10;;;;;;5055118;28;20049;-80
2022/08/20 12:32:29;;;;;;;4.25;0.70;;;28.40;48.60;;;;;;5054729;28;20530;-80
2022/08/20 12:34:55;;;;;;;5.57;1.00;;;28.20;48.80;;;;;;5054567;28;20032;-80
2022/08/20 12:37:25;;;;;;;5.57;1.00;;;27.80;48.80;;;;;;5054481;28;20049;-80
2022/08/20 12:39:53;;;;;;;4.65;0.88;;;27.60;49.70;;;;;;5054565;28;20028;-80
2022/08/20 12:42:26;;;;;;;6.60;0.82;;;27.50;50.60;;;;;;5054731;28;20028;-80
2022/08/20 12:44:52;;;;;;;5.82;0.95;;;27.40;50.20;;;;;;5054897;28;20024;-80
2022/08/20 12:47:20;;;;;;;10.32;1.23;;;27.20;50.70;;;;;;5054678;28;20353;-81
2022/08/20 12:49:49;;;;;;;4.57;0.77;;;27.10;50.90;;;;;;5054500;28;20025;-78
2022/08/20 12:52:18;;;;;;;6.53;1.17;;;27.00;50.50;;;;;;5054416;28;20435;-79
2022/08/20 12:54:44;;;;;;;4.22;0.60;;;26.90;52.10;;;;;;5054559;28;20491;-79
2022/08/20 12:57:24;;;;;;;6.90;1.50;;;27.00;52.80;;;;;;5054492;28;20029;-78